Time;durP1;ratioP1;P1;durP2;ratioP2;P2;SDS_P1;SDS_P2;PMS_P1;PMS_P2;Temp;Humidity;BMP_temperature;BMP_pressure;BME280_temperature;BME280_humidity;BME280_pressure;Samples;Min_cycle;Max_cycle;Signal;HPM_P1;HPM_P2
2022/08/11 00:01:49;;;;;;;1.83;1.00;;;;;;;;;;5022214;28;87658;-53
2022/08/11 00:04:18;;;;;;;2.17;1.03;;;;;;;;;;5022418;28;87171;-53
2022/08/11 00:06:47;;;;;;;1.00;0.90;;;;;;;;;;5022186;28;90200;-53
2022/08/11 00:09:17;;;;;;;1.77;1.10;;;;;;;;;;5022639;28;90328;-53
2022/08/11 00:11:45;;;;;;;0.73;0.73;;;;;;;;;;5022278;28;87017;-52
2022/08/11 00:14:15;;;;;;;0.73;0.73;;;;;;;;;;5022808;28;87032;-53
2022/08/11 00:16:43;;;;;;;0.70;0.63;;;;;;;;;;5021299;28;89078;-53
2022/08/11 00:19:11;;;;;;;1.57;0.97;;;;;;;;;;5022238;28;87826;-53
2022/08/11 00:21:41;;;;;;;0.80;0.80;;;;;;;;;;5023263;28;87142;-52
2022/08/11 00:24:34;;;;;;;1.60;0.80;;;;;;;;;;5022773;28;86363;-53
2022/08/11 00:27:22;;;;;;;1.03;0.80;;;;;;;;;;5022224;28;87034;-52
2022/08/11 00:29:53;;;;;;;0.60;0.60;;;;;;;;;;5022547;28;88990;-53
2022/08/11 00:32:22;;;;;;;2.03;0.70;;;;;;;;;;5022045;28;87968;-52
2022/08/11 00:34:50;;;;;;;1.50;0.80;;;;;;;;;;5021786;28;86992;-53
2022/08/11 00:37:38;;;;;;;0.70;0.70;;;;;;;;;;5022665;28;91278;-52
2022/08/11 00:40:09;;;;;;;0.70;0.70;;;;;;;;;;5021732;28;88787;-52
2022/08/11 00:42:41;;;;;;;1.00;0.90;;;;;;;;;;5002430;28;86950;-53
2022/08/11 00:45:10;;;;;;;0.60;0.60;;;;;;;;;;5017329;28;87061;-52
2022/08/11 00:47:42;;;;;;;0.87;0.70;;;;;;;;;;5021857;28;89123;-52
2022/08/11 00:50:13;;;;;;;0.43;0.43;;;;;;;;;;5020876;28;88929;-53
2022/08/11 00:52:48;;;;;;;0.77;0.60;;;;;;;;;;5022043;28;87106;-52
2022/08/11 00:55:34;;;;;;;0.73;0.73;;;;;;;;;;5020579;28;87041;-53
2022/08/11 00:58:21;;;;;;;2.17;0.80;;;;;;;;;;5011454;28;90058;-52
2022/08/11 01:01:03;;;;;;;1.13;0.83;;;;;;;;;;5009172;28;88660;-52
2022/08/11 01:03:33;;;;;;;0.63;0.63;;;;;;;;;;5022364;28;86940;-53
2022/08/11 01:06:04;;;;;;;1.50;1.10;;;;;;;;;;5021399;28;87043;-53
2022/08/11 01:08:50;;;;;;;2.17;1.50;;;;;;;;;;5021113;28;87156;-53
2022/08/11 01:11:32;;;;;;;4.63;1.80;;;;;;;;;;5018118;28;89053;-53
2022/08/11 01:14:11;;;;;;;2.33;1.67;;;;;;;;;;5021489;28;86930;-52
2022/08/11 01:16:50;;;;;;;2.90;1.83;;;;;;;;;;5021739;28;86339;-53
2022/08/11 01:19:43;;;;;;;1.50;1.40;;;;;;;;;;5020567;28;88132;-52
2022/08/11 01:22:43;;;;;;;2.20;1.20;;;;;;;;;;5013670;28;90195;-52
2022/08/11 01:25:29;;;;;;;1.70;1.27;;;;;;;;;;5021131;28;87964;-53
2022/08/11 01:28:21;;;;;;;3.03;1.23;;;;;;;;;;5020996;28;87027;-52
2022/08/11 01:31:06;;;;;;;1.63;1.30;;;;;;;;;;5005157;28;89254;-52
2022/08/11 01:33:46;;;;;;;1.67;0.90;;;;;;;;;;5021225;28;88040;-53
2022/08/11 01:36:31;;;;;;;1.40;1.17;;;;;;;;;;5021473;28;86948;-52
2022/08/11 01:39:17;;;;;;;0.93;0.80;;;;;;;;;;5021956;28;87178;-52
2022/08/11 01:44:55;;;;;;;0.97;0.70;;;;;;;;;;5021820;28;88883;-53
2022/08/11 01:50:27;;;;;;;1.57;1.17;;;;;;;;;;5020577;28;87185;-53
2022/08/11 01:53:10;;;;;;;1.97;1.13;;;;;;;;;;5020750;28;89078;-53
2022/08/11 01:55:41;;;;;;;1.53;1.10;;;;;;;;;;5019093;28;88716;-53
2022/08/11 01:58:12;;;;;;;1.43;1.17;;;;;;;;;;5019964;28;87144;-54
2022/08/11 02:00:46;;;;;;;1.37;0.80;;;;;;;;;;5021135;28;87045;-52
2022/08/11 02:03:16;;;;;;;1.40;1.00;;;;;;;;;;5020624;28;89046;-53
2022/08/11 02:05:51;;;;;;;3.00;1.10;;;;;;;;;;5020725;28;87651;-53
2022/08/11 02:08:24;;;;;;;2.33;1.10;;;;;;;;;;5020928;28;87013;-52
2022/08/11 02:13:52;;;;;;;1.20;1.10;;;;;;;;;;5020739;28;89205;-53
2022/08/11 02:16:22;;;;;;;2.37;1.50;;;;;;;;;;5019160;28;87836;-52
2022/08/11 02:24:30;;;;;;;2.30;1.60;;;;;;;;;;5013683;28;89171;-52
2022/08/11 02:27:00;;;;;;;1.83;1.20;;;;;;;;;;5013804;28;88973;-52
2022/08/11 02:29:30;;;;;;;1.83;1.60;;;;;;;;;;5014192;28;87813;-53
2022/08/11 02:35:02;;;;;;;4.80;2.73;;;;;;;;;;4993976;28;89292;-52
2022/08/11 02:37:35;;;;;;;4.60;2.90;;;;;;;;;;5021349;28;89121;-52
2022/08/11 02:40:10;;;;;;;7.37;4.23;;;;;;;;;;5020862;28;87055;-53
2022/08/11 02:42:39;;;;;;;6.43;4.20;;;;;;;;;;5013748;28;89132;-53
2022/08/11 02:45:12;;;;;;;6.00;3.93;;;;;;;;;;5015188;28;89581;-54
2022/08/11 02:49:52;;;;;;;5.90;4.20;;;;;;;;;;5013848;28;88906;-53
2022/08/11 02:50:30;;;;;;;7.77;4.23;;;;;;;;;;5016626;28;87035;-53
2022/08/11 02:52:59;;;;;;;6.30;4.47;;;;;;;;;;5022871;28;86851;-52
2022/08/11 02:55:31;;;;;;;5.47;4.20;;;;;;;;;;5023100;28;88317;-52
2022/08/11 02:58:23;;;;;;;7.33;4.90;;;;;;;;;;5023119;28;88361;-53
2022/08/11 03:00:56;;;;;;;6.63;4.40;;;;;;;;;;5023626;28;87045;-52
2022/08/11 03:03:24;;;;;;;5.80;4.50;;;;;;;;;;5022181;28;86852;-52
2022/08/11 03:05:54;;;;;;;6.23;4.00;;;;;;;;;;5022077;28;89175;-52
2022/08/11 03:08:38;;;;;;;5.93;3.93;;;;;;;;;;5023113;28;87846;-52
2022/08/11 03:16:47;;;;;;;6.27;4.00;;;;;;;;;;5022783;28;89155;-53
2022/08/11 03:19:19;;;;;;;6.17;4.17;;;;;;;;;;5023426;28;87810;-54
2022/08/11 03:21:48;;;;;;;5.30;3.30;;;;;;;;;;5023369;28;87016;-52
2022/08/11 03:24:32;;;;;;;5.83;3.53;;;;;;;;;;5022634;28;87031;-53
2022/08/11 03:27:05;;;;;;;4.40;2.97;;;;;;;;;;5022524;28;89162;-52
2022/08/11 03:29:35;;;;;;;4.80;2.60;;;;;;;;;;5024059;28;89124;-53
2022/08/11 03:32:05;;;;;;;3.40;3.10;;;;;;;;;;5022442;28;86983;-53
2022/08/11 03:34:35;;;;;;;4.37;3.03;;;;;;;;;;5022982;28;87009;-52
2022/08/11 03:40:05;;;;;;;3.10;2.40;;;;;;;;;;5021487;28;88769;-52
2022/08/11 03:42:41;;;;;;;3.47;2.40;;;;;;;;;;5021466;28;88816;-52
2022/08/11 03:45:16;;;;;;;2.10;1.60;;;;;;;;;;5023289;28;87068;-51
2022/08/11 03:47:46;;;;;;;2.27;1.53;;;;;;;;;;5022568;28;89213;-53
2022/08/11 03:50:33;;;;;;;3.23;1.63;;;;;;;;;;5023147;28;87829;-52
2022/08/11 03:53:15;;;;;;;2.43;1.70;;;;;;;;;;5021613;28;87017;-53
2022/08/11 03:56:04;;;;;;;3.07;1.93;;;;;;;;;;5022550;28;86340;-53
2022/08/11 03:58:50;;;;;;;1.60;1.20;;;;;;;;;;4996834;28;89170;-53
2022/08/11 04:01:31;;;;;;;2.10;1.40;;;;;;;;;;5021753;28;88875;-53
2022/08/11 04:04:14;;;;;;;1.73;1.37;;;;;;;;;;5022778;28;88029;-52
2022/08/11 04:06:57;;;;;;;1.77;1.30;;;;;;;;;;5022371;28;87095;-53
2022/08/11 04:09:45;;;;;;;1.37;1.27;;;;;;;;;;5005715;28;88325;-53
2022/08/11 04:12:15;;;;;;;1.40;1.30;;;;;;;;;;5020231;28;89026;-53
2022/08/11 04:18:21;;;;;;;1.57;1.40;;;;;;;;;;5012712;28;86971;-52
2022/08/11 04:21:13;;;;;;;3.67;1.03;;;;;;;;;;5021167;28;88809;-52
2022/08/11 04:23:50;;;;;;;1.80;1.30;;;;;;;;;;5022266;28;89004;-52
2022/08/11 04:27:01;;;;;;;3.47;0.97;;;;;;;;;;5015870;28;87019;-52
2022/08/11 04:29:46;;;;;;;1.47;1.37;;;;;;;;;;5021683;28;87080;-52
2022/08/11 04:32:37;;;;;;;1.03;0.93;;;;;;;;;;5021879;28;90195;-52
2022/08/11 04:35:11;;;;;;;1.03;0.93;;;;;;;;;;5021751;28;89748;-52
2022/08/11 04:37:44;;;;;;;0.90;0.90;;;;;;;;;;5022289;28;87083;-52
2022/08/11 04:40:50;;;;;;;1.27;1.17;;;;;;;;;;5010368;28;87199;-53
2022/08/11 04:43:33;;;;;;;1.83;0.90;;;;;;;;;;5021344;28;88354;-52
2022/08/11 04:46:12;;;;;;;0.83;0.83;;;;;;;;;;5021912;28;88787;-52
2022/08/11 05:03:51;;;;;;;0.77;0.70;;;;;;;;;;5022110;28;86935;-52
2022/08/11 05:06:36;;;;;;;0.60;0.60;;;;;;;;;;5020288;28;88174;-52
2022/08/11 05:09:23;;;;;;;0.87;0.80;;;;;;;;;;5021519;28;88107;-52
2022/08/11 05:11:58;;;;;;;1.23;1.03;;;;;;;;;;5021689;28;87064;-52
2022/08/11 05:34:52;;;;;;;0.93;0.90;;;;;;;;;;5021363;28;87140;-52
2022/08/11 05:37:23;;;;;;;1.10;0.90;;;;;;;;;;5021316;28;87475;-52
2022/08/11 05:56:57;;;;;;;0.77;0.77;;;;;;;;;;5000795;28;88009;-53
2022/08/11 05:59:27;;;;;;;3.80;0.90;;;;;;;;;;5000202;28;87019;-52
2022/08/11 06:02:01;;;;;;;1.33;0.67;;;;;;;;;;5000215;28;88976;-52
2022/08/11 06:04:29;;;;;;;0.60;0.60;;;;;;;;;;5000194;28;88798;-53
2022/08/11 06:06:58;;;;;;;0.70;0.70;;;;;;;;;;5000259;28;88765;-52
2022/08/11 06:09:30;;;;;;;1.87;0.97;;;;;;;;;;5000667;28;87028;-53
2022/08/11 06:12:00;;;;;;;0.93;0.90;;;;;;;;;;5000783;28;88101;-53
2022/08/11 06:14:29;;;;;;;4.70;0.80;;;;;;;;;;5001202;28;89043;-52
2022/08/11 06:16:59;;;;;;;1.00;0.90;;;;;;;;;;5002860;28;87097;-53
2022/08/11 06:19:35;;;;;;;1.00;0.90;;;;;;;;;;5004550;28;87137;-53
2022/08/11 06:22:04;;;;;;;1.30;0.70;;;;;;;;;;5003927;28;90090;-53
2022/08/11 06:24:33;;;;;;;1.17;0.80;;;;;;;;;;5004484;28;88992;-53
2022/08/11 06:27:01;;;;;;;2.60;0.80;;;;;;;;;;5002875;28;87782;-53
2022/08/11 06:29:45;;;;;;;0.70;0.70;;;;;;;;;;5004177;28;87011;-52
2022/08/11 06:32:21;;;;;;;0.80;0.77;;;;;;;;;;5003385;28;89204;-54
2022/08/11 06:34:59;;;;;;;0.83;0.63;;;;;;;;;;5004171;28;88862;-53
2022/08/11 06:37:30;;;;;;;0.67;0.60;;;;;;;;;;5003557;28;87174;-53
2022/08/11 06:40:05;;;;;;;2.30;0.97;;;;;;;;;;5004311;28;86311;-53
2022/08/11 06:42:36;;;;;;;1.00;0.70;;;;;;;;;;4993265;28;89192;-53
2022/08/11 06:45:07;;;;;;;1.10;0.80;;;;;;;;;;4991838;28;89008;-53
2022/08/11 06:47:35;;;;;;;1.90;1.20;;;;;;;;;;4998504;28;87945;-53
2022/08/11 06:52:55;;;;;;;1.20;1.03;;;;;;;;;;4991868;28;89199;-53
2022/08/11 07:00:26;;;;;;;0.93;0.87;;;;;;;;;;5000728;28;87950;-52
2022/08/11 07:01:13;;;;;;;2.17;1.00;;;;;;;;;;5013599;28;87372;-52
2022/08/11 07:03:43;;;;;;;1.37;1.17;;;;;;;;;;5012531;28;87947;-53
2022/08/11 07:06:29;;;;;;;1.53;1.07;;;;;;;;;;5012201;28;88891;-52
2022/08/11 07:30:09;;;;;;;3.40;1.37;;;;;;;;;;5003255;28;88810;-52
2022/08/11 07:32:38;;;;;;;2.30;1.50;;;;;;;;;;5004005;28;87113;-53
2022/08/11 07:35:08;;;;;;;3.60;1.63;;;;;;;;;;5004428;28;86200;-53
2022/08/11 07:37:36;;;;;;;0.80;0.70;;;;;;;;;;5003378;28;89324;-54
2022/08/11 07:40:07;;;;;;;3.87;0.93;;;;;;;;;;5003248;28;87744;-53
2022/08/11 07:42:36;;;;;;;1.57;0.93;;;;;;;;;;5003087;28;87848;-52
2022/08/11 07:53:27;;;;;;;1.27;1.17;;;;;;;;;;5012469;28;87259;-54
2022/08/11 07:55:57;;;;;;;1.40;1.23;;;;;;;;;;5011329;28;86986;-52
2022/08/11 08:18:00;;;;;;;5.27;2.10;;;;;;;;;;5022083;28;87058;-53
2022/08/11 08:20:49;;;;;;;2.77;1.50;;;;;;;;;;5020439;28;87768;-53
2022/08/11 08:23:31;;;;;;;2.97;1.77;;;;;;;;;;5022045;28;87820;-52
2022/08/11 08:26:00;;;;;;;3.40;2.07;;;;;;;;;;5022979;28;86863;-53
2022/08/11 08:28:30;;;;;;;2.20;1.70;;;;;;;;;;5022541;28;87059;-53
2022/08/11 08:30:59;;;;;;;2.40;1.67;;;;;;;;;;5022267;28;88233;-52
2022/08/11 08:33:28;;;;;;;2.63;1.90;;;;;;;;;;5022486;28;87781;-53
2022/08/11 08:36:11;;;;;;;3.23;2.10;;;;;;;;;;5022552;28;88698;-53
2022/08/11 08:38:40;;;;;;;5.40;2.50;;;;;;;;;;5022764;28;87056;-52
2022/08/11 08:41:08;;;;;;;3.60;1.70;;;;;;;;;;5020686;28;88211;-52
2022/08/11 08:43:41;;;;;;;2.70;1.90;;;;;;;;;;5018687;28;88878;-52
2022/08/11 08:46:16;;;;;;;3.17;1.90;;;;;;;;;;5010340;28;87134;-52
2022/08/11 08:48:44;;;;;;;2.73;1.90;;;;;;;;;;5010388;28;86988;-52
2022/08/11 08:54:20;;;;;;;1.77;1.33;;;;;;;;;;5011606;28;90097;-52
2022/08/11 08:56:49;;;;;;;2.43;1.60;;;;;;;;;;5010568;28;86948;-52
2022/08/11 08:59:21;;;;;;;1.43;1.30;;;;;;;;;;5009385;28;87295;-52
2022/08/11 09:01:50;;;;;;;1.93;1.73;;;;;;;;;;5009217;28;90260;-52
2022/08/11 09:04:19;;;;;;;2.63;1.57;;;;;;;;;;5008917;28;89976;-52
2022/08/11 09:06:49;;;;;;;5.40;2.33;;;;;;;;;;5011146;28;86997;-53
2022/08/11 09:09:20;;;;;;;3.90;2.20;;;;;;;;;;5011746;28;87084;-53
2022/08/11 09:11:53;;;;;;;3.33;2.20;;;;;;;;;;5009780;28;89308;-52
2022/08/11 09:14:23;;;;;;;5.43;2.97;;;;;;;;;;5009328;28;88938;-51
2022/08/11 09:16:51;;;;;;;3.40;2.33;;;;;;;;;;5009751;28;86884;-52
2022/08/11 09:19:20;;;;;;;3.57;2.50;;;;;;;;;;5011568;28;86381;-52
2022/08/11 09:26:58;;;;;;;6.27;2.57;;;;;;;;;;5010244;28;88077;-52
2022/08/11 09:27:25;;;;;;;3.60;2.20;;;;;;;;;;5005730;28;87972;-52
2022/08/11 09:29:55;;;;;;;3.27;2.43;;;;;;;;;;5001832;28;87028;-52
2022/08/11 09:32:23;;;;;;;5.50;2.20;;;;;;;;;;5016081;28;89240;-52
2022/08/11 09:34:51;;;;;;;4.83;2.53;;;;;;;;;;5016880;28;87812;-52
2022/08/11 09:40:29;;;;;;;2.97;2.00;;;;;;;;;;5013627;28;87018;-53
2022/08/11 09:45:50;;;;;;;2.63;1.60;;;;;;;;;;5010089;28;88783;-52
2022/08/11 09:48:19;;;;;;;4.03;2.63;;;;;;;;;;5009946;28;86842;-52
2022/08/11 09:50:48;;;;;;;3.27;2.30;;;;;;;;;;5010711;28;86994;-53
2022/08/11 09:53:16;;;;;;;3.13;2.30;;;;;;;;;;5010328;28;90088;-53
2022/08/11 09:58:12;;;;;;;4.87;3.47;;;;;;;;;;5009563;28;88709;-53
2022/08/11 09:58:53;;;;;;;2.80;2.10;;;;;;;;;;5011636;28;87231;-52
2022/08/11 10:01:29;;;;;;;7.27;2.77;;;;;;;;;;5005929;28;87026;-52
2022/08/11 10:04:00;;;;;;;4.27;2.00;;;;;;;;;;5000909;28;88305;-52
2022/08/11 10:09:16;;;;;;;3.83;2.33;;;;;;;;;;5001259;28;87097;-52
2022/08/11 10:11:44;;;;;;;2.73;2.13;;;;;;;;;;5001165;28;86159;-52
2022/08/11 10:17:13;;;;;;;4.17;2.30;;;;;;;;;;5001119;28;87739;-52
2022/08/11 10:19:41;;;;;;;2.27;1.93;;;;;;;;;;5000548;28;87807;-52
2022/08/11 10:27:48;;;;;;;1.57;1.47;;;;;;;;;;4999693;28;87762;-52
2022/08/11 10:36:26;;;;;;;2.13;1.90;;;;;;;;;;5000809;28;88455;-52
2022/08/11 10:38:55;;;;;;;2.33;1.50;;;;;;;;;;5001802;28;88117;-53
2022/08/11 10:44:33;;;;;;;2.00;1.53;;;;;;;;;;4978856;28;86990;-53
2022/08/11 10:51:11;;;;;;;2.40;1.27;;;;;;;;;;5000316;28;88731;-52
2022/08/11 11:00:57;;;;;;;1.20;1.10;;;;;;;;;;5000521;28;87803;-53
2022/08/11 11:03:26;;;;;;;1.70;1.23;;;;;;;;;;5001265;28;87026;-53
2022/08/11 11:05:56;;;;;;;1.33;1.20;;;;;;;;;;5004666;28;86242;-52
2022/08/11 11:08:55;;;;;;;0.93;0.90;;;;;;;;;;5003445;28;87754;-52
2022/08/11 11:20:02;;;;;;;2.83;0.77;;;;;;;;;;5003715;28;88236;-54
2022/08/11 11:22:37;;;;;;;1.53;1.20;;;;;;;;;;5004077;28;89065;-54
2022/08/11 11:25:11;;;;;;;1.40;1.10;;;;;;;;;;5003821;28;87063;-53
2022/08/11 11:27:42;;;;;;;0.87;0.77;;;;;;;;;;5023772;28;87044;-54
2022/08/11 11:30:14;;;;;;;1.33;1.00;;;;;;;;;;5023504;28;89127;-54
2022/08/11 11:32:44;;;;;;;1.27;0.80;;;;;;;;;;5023779;28;88955;-54
2022/08/11 11:35:18;;;;;;;1.80;1.00;;;;;;;;;;5023261;28;87091;-54
2022/08/11 11:37:51;;;;;;;0.93;0.80;;;;;;;;;;5023624;28;87392;-52
2022/08/11 11:40:32;;;;;;;2.50;0.83;;;;;;;;;;5022994;28;90019;-53
2022/08/11 11:43:00;;;;;;;0.87;0.60;;;;;;;;;;5023605;28;88863;-54
2022/08/11 11:45:29;;;;;;;1.03;0.83;;;;;;;;;;5023815;28;87045;-52
2022/08/11 11:47:58;;;;;;;1.70;1.10;;;;;;;;;;5023353;28;87750;-57
2022/08/11 11:50:27;;;;;;;1.20;0.80;;;;;;;;;;5022721;28;88314;-53
2022/08/11 11:53:01;;;;;;;0.80;0.80;;;;;;;;;;5021957;28;87548;-54
2022/08/11 11:55:30;;;;;;;1.67;0.80;;;;;;;;;;5023466;28;87060;-54
2022/08/11 12:03:32;;;;;;;0.60;0.60;;;;;;;;;;5023128;28;88897;-60
2022/08/11 12:06:00;;;;;;;1.03;0.80;;;;;;;;;;5022959;28;87781;-52
2022/08/11 12:08:30;;;;;;;0.50;0.50;;;;;;;;;;5023159;28;87065;-52
2022/08/11 12:13:41;;;;;;;0.80;0.80;;;;;;;;;;5002199;28;87828;-52
2022/08/11 12:16:09;;;;;;;0.77;0.77;;;;;;;;;;5002603;28;87024;-51
2022/08/11 12:18:58;;;;;;;0.80;0.80;;;;;;;;;;5002574;28;87159;-52
2022/08/11 12:21:27;;;;;;;0.67;0.67;;;;;;;;;;5002949;28;89131;-52
2022/08/11 12:29:45;;;;;;;0.70;0.70;;;;;;;;;;5003019;28;87069;-54
2022/08/11 12:32:17;;;;;;;1.20;0.90;;;;;;;;;;5002038;28;90061;-54
2022/08/11 12:34:45;;;;;;;1.87;0.80;;;;;;;;;;5002763;28;88697;-53
2022/08/11 12:37:13;;;;;;;3.10;0.87;;;;;;;;;;5002428;28;87055;-54
2022/08/11 12:45:31;;;;;;;1.10;1.00;;;;;;;;;;5002109;28;87768;-53
2022/08/11 12:54:07;;;;;;;0.70;0.70;;;;;;;;;;5001771;28;88872;-52
2022/08/11 13:05:02;;;;;;;0.73;0.70;;;;;;;;;;5001906;28;89151;-54
2022/08/11 13:07:32;;;;;;;1.10;0.80;;;;;;;;;;5002036;28;87526;-52
2022/08/11 13:12:46;;;;;;;4.93;1.00;;;;;;;;;;5002572;28;87017;-53
2022/08/11 13:13:08;;;;;;;0.90;0.70;;;;;;;;;;5001677;28;87041;-53
2022/08/11 13:15:56;;;;;;;1.17;0.90;;;;;;;;;;5001943;28;87645;-53
2022/08/11 13:18:26;;;;;;;2.20;0.93;;;;;;;;;;5001969;28;87847;-54
2022/08/11 13:20:54;;;;;;;0.70;0.70;;;;;;;;;;5002245;28;87144;-54
2022/08/11 13:23:23;;;;;;;0.70;0.70;;;;;;;;;;5001742;28;87066;-55
2022/08/11 13:25:51;;;;;;;0.80;0.80;;;;;;;;;;5000589;28;90215;-52
2022/08/11 13:28:21;;;;;;;0.63;0.63;;;;;;;;;;5001245;28;88928;-55
2022/08/11 13:33:36;;;;;;;1.47;0.67;;;;;;;;;;5001307;28;87034;-52
2022/08/11 13:36:06;;;;;;;0.70;0.70;;;;;;;;;;5001323;28;89211;-53
2022/08/11 13:38:34;;;;;;;0.90;0.50;;;;;;;;;;5001297;28;87943;-53
2022/08/11 13:41:36;;;;;;;0.80;0.60;;;;;;;;;;5002078;28;87076;-54
2022/08/11 13:43:53;;;;;;;1.33;0.63;;;;;;;;;;5001754;28;86362;-53
2022/08/11 13:46:21;;;;;;;0.73;0.73;;;;;;;;;;5001958;28;89102;-53
2022/08/11 13:48:50;;;;;;;0.67;0.50;;;;;;;;;;5001226;28;87787;-53
2022/08/11 13:51:31;;;;;;;1.23;0.87;;;;;;;;;;5001793;28;87998;-53
2022/08/11 13:54:02;;;;;;;0.80;0.80;;;;;;;;;;5001306;28;86878;-53
2022/08/11 13:56:31;;;;;;;0.90;0.80;;;;;;;;;;5001094;28;89876;-53
2022/08/11 13:59:01;;;;;;;0.60;0.60;;;;;;;;;;5001114;28;87833;-53
2022/08/11 14:01:30;;;;;;;0.70;0.70;;;;;;;;;;5001812;28;87053;-53
2022/08/11 14:04:21;;;;;;;0.93;0.70;;;;;;;;;;5001306;28;88386;-53
2022/08/11 14:06:59;;;;;;;0.83;0.77;;;;;;;;;;5001170;28;88062;-54
2022/08/11 14:09:28;;;;;;;0.67;0.60;;;;;;;;;;5001351;28;88718;-53
2022/08/11 14:14:53;;;;;;;1.13;0.80;;;;;;;;;;5001210;28;87194;-53
2022/08/11 14:17:21;;;;;;;0.97;0.80;;;;;;;;;;5000248;28;90188;-53
2022/08/11 14:20:10;;;;;;;2.13;1.30;;;;;;;;;;5000745;28;88459;-53
2022/08/11 14:22:58;;;;;;;1.60;1.00;;;;;;;;;;5016980;28;87022;-52
2022/08/11 14:25:26;;;;;;;1.00;0.80;;;;;;;;;;5019877;28;87062;-52
2022/08/11 14:28:14;;;;;;;2.87;1.13;;;;;;;;;;5019484;28;87115;-53
2022/08/11 14:31:05;;;;;;;2.30;1.60;;;;;;;;;;5020152;28;90140;-53
2022/08/11 14:33:33;;;;;;;1.27;1.17;;;;;;;;;;5004618;28;87091;-52
2022/08/11 14:36:22;;;;;;;2.50;1.20;;;;;;;;;;5001241;28;86310;-53
2022/08/11 14:38:52;;;;;;;2.07;1.10;;;;;;;;;;5003429;28;88063;-53
2022/08/11 14:47:14;;;;;;;1.73;1.43;;;;;;;;;;5004537;28;87019;-53
2022/08/11 14:49:52;;;;;;;1.67;1.20;;;;;;;;;;5004136;28;88110;-53
2022/08/11 14:52:39;;;;;;;3.43;0.93;;;;;;;;;;5003908;28;89164;-53
2022/08/11 14:57:54;;;;;;;1.60;1.50;;;;;;;;;;5013021;28;88045;-53
2022/08/11 15:00:24;;;;;;;1.60;1.23;;;;;;;;;;5011608;28;87899;-53
2022/08/11 15:03:11;;;;;;;2.00;1.07;;;;;;;;;;5014544;28;88964;-53
2022/08/11 15:05:42;;;;;;;1.13;1.00;;;;;;;;;;5024038;28;87539;-53
2022/08/11 15:08:53;;;;;;;1.40;1.10;;;;;;;;;;5024121;28;87018;-53
2022/08/11 15:13:57;;;;;;;1.00;0.90;;;;;;;;;;5012173;28;89958;-53
2022/08/11 15:19:12;;;;;;;1.50;0.90;;;;;;;;;;5010416;28;87569;-53
2022/08/11 15:24:27;;;;;;;1.20;1.00;;;;;;;;;;5009771;28;88948;-54
2022/08/11 15:38:06;;;;;;;6.50;0.80;;;;;;;;;;5007506;28;88055;-53
2022/08/11 15:46:09;;;;;;;1.00;1.00;;;;;;;;;;5012248;28;88088;-53
2022/08/11 15:48:40;;;;;;;0.87;0.87;;;;;;;;;;5011718;28;87062;-53
2022/08/11 15:51:10;;;;;;;2.40;1.20;;;;;;;;;;5010198;28;87138;-53
2022/08/11 15:53:41;;;;;;;0.90;0.60;;;;;;;;;;5011142;28;89163;-53
2022/08/11 15:56:09;;;;;;;0.90;0.90;;;;;;;;;;5013442;28;88938;-53
2022/08/11 16:04:31;;;;;;;0.90;0.90;;;;;;;;;;5007461;28;90079;-54
2022/08/11 16:07:02;;;;;;;0.70;0.70;;;;;;;;;;5002636;28;90097;-53
2022/08/11 16:09:33;;;;;;;1.00;0.77;;;;;;;;;;5003281;28;87057;-53
2022/08/11 16:12:16;;;;;;;1.00;1.00;;;;;;;;;;5002230;28;86992;-53
2022/08/11 16:17:31;;;;;;;8.00;1.10;;;;;;;;;;5002046;28;87773;-53
2022/08/11 16:19:59;;;;;;;0.67;0.63;;;;;;;;;;5002722;28;87085;-53
2022/08/11 16:22:35;;;;;;;0.90;0.90;;;;;;;;;;5002323;28;86533;-53
2022/08/11 16:25:03;;;;;;;0.80;0.80;;;;;;;;;;5001296;28;89135;-53
2022/08/11 16:27:52;;;;;;;1.07;0.80;;;;;;;;;;5001829;28;90153;-54
2022/08/11 16:30:20;;;;;;;0.93;0.80;;;;;;;;;;5002115;28;88000;-53
2022/08/11 16:32:51;;;;;;;1.53;0.90;;;;;;;;;;5002492;28;86933;-55
2022/08/11 16:41:06;;;;;;;4.13;1.00;;;;;;;;;;4941616;28;87016;-53
2022/08/11 16:49:11;;;;;;;2.13;0.80;;;;;;;;;;5001446;28;87769;-53
2022/08/11 16:51:40;;;;;;;0.53;0.53;;;;;;;;;;5004058;28;87015;-54
2022/08/11 16:54:09;;;;;;;1.23;0.80;;;;;;;;;;5020294;28;87128;-53
2022/08/11 16:56:39;;;;;;;0.83;0.70;;;;;;;;;;5020048;28;90205;-53
2022/08/11 16:59:13;;;;;;;1.23;0.90;;;;;;;;;;5017192;28;88942;-53
2022/08/11 17:01:44;;;;;;;2.40;0.83;;;;;;;;;;5000622;28;87394;-53
2022/08/11 17:13:17;;;;;;;1.77;0.90;;;;;;;;;;5002070;28;86940;-53
2022/08/11 17:18:45;;;;;;;0.47;0.47;;;;;;;;;;5001176;28;88067;-53
2022/08/11 17:21:15;;;;;;;0.90;0.60;;;;;;;;;;5000888;28;87612;-52
2022/08/11 17:23:46;;;;;;;0.80;0.80;;;;;;;;;;5000510;28;88003;-54
2022/08/11 17:26:17;;;;;;;2.90;0.90;;;;;;;;;;5001384;28;87033;-52
2022/08/11 17:28:46;;;;;;;0.90;0.70;;;;;;;;;;5003859;28;89139;-53
2022/08/11 17:36:50;;;;;;;1.43;1.30;;;;;;;;;;4988508;28;87135;-53
2022/08/11 17:39:18;;;;;;;2.07;1.27;;;;;;;;;;5009673;28;89186;-53
2022/08/11 17:50:06;;;;;;;1.33;1.10;;;;;;;;;;5007329;28;88949;-53
2022/08/11 18:01:09;;;;;;;1.80;1.40;;;;;;;;;;5008963;28;88164;-53
2022/08/11 18:03:39;;;;;;;2.50;1.53;;;;;;;;;;5009247;28;88246;-53
2022/08/11 18:06:08;;;;;;;4.80;1.53;;;;;;;;;;5009095;28;87620;-53
